Wetterdaten: Woche 14.01.13 - 20.01.13 (KW3)
Datum Zeit Temp. A. Feuchte A. Luftdruck Regen Wind Richtung Taupunkt Windchill Windben
14.01.2013 00:00 -4,2 C 93 % 1019,2 hPa 0,0 l/m 6,1 km/h (2 Bft) NO -5,2 C -4,6 C 9,3 km/h (2 Bft)
14.01.2013 01:00 -4,3 C 93 % 1018,9 hPa 0,0 l/m 3,5 km/h (1 Bft) O -5,3 C -4,3 C 6,7 km/h (2 Bft)
14.01.2013 02:00 -4,2 C 91 % 1018,6 hPa 0,0 l/m 4,6 km/h (1 Bft) O -5,4 C -4,2 C 9,3 km/h (2 Bft)
14.01.2013 03:00 -4,9 C 90 % 1018,5 hPa 0,0 l/m 3,1 km/h (1 Bft) O -6,3 C -4,9 C 6,8 km/h (2 Bft)
14.01.2013 04:00 -5,9 C 91 % 1017,9 hPa 0,0 l/m 1,2 km/h (1 Bft) O-NO -7,2 C -5,9 C 3,2 km/h (1 Bft)
14.01.2013 05:00 -5,7 C 91 % 1017,4 hPa 0,0 l/m 2,9 km/h (1 Bft) O-NO -7,0 C -5,7 C 6,5 km/h (2 Bft)
14.01.2013 06:00 -5,6 C 91 % 1017,1 hPa 0,0 l/m 4,0 km/h (1 Bft) O-NO -6,9 C -5,6 C 7,5 km/h (2 Bft)
14.01.2013 07:00 -5,0 C 92 % 1017,1 hPa 0,0 l/m 5,2 km/h (1 Bft) O -6,1 C -5,1 C 10,5 km/h (2 Bft)
14.01.2013 08:00 -4,6 C 91 % 1016,9 hPa 0,0 l/m 5,5 km/h (2 Bft) O-SO -5,8 C -5,1 C 11,8 km/h (2 Bft)
14.01.2013 09:00 -4,7 C 90 % 1016,6 hPa 0,0 l/m 6,6 km/h (2 Bft) O-SO -6,0 C -5,1 C 13,8 km/h (3 Bft)
14.01.2013 10:00 -4,7 C 91 % 1016,3 hPa 0,0 l/m 4,9 km/h (1 Bft) O -6,0 C -4,7 C 10,3 km/h (2 Bft)
14.01.2013 11:00 -4,5 C 90 % 1015,9 hPa 0,0 l/m 6,4 km/h (2 Bft) O-SO -6,0 C -4,8 C 12,8 km/h (3 Bft)
14.01.2013 12:00 -4,1 C 89 % 1015,2 hPa 0,0 l/m 4,0 km/h (1 Bft) O-SO -5,6 C -4,1 C 9,0 km/h (2 Bft)
14.01.2013 13:00 -3,8 C 88 % 1014,4 hPa 0,0 l/m 3,4 km/h (1 Bft) O -5,5 C -3,8 C 7,9 km/h (2 Bft)
14.01.2013 14:00 -3,7 C 87 % 1013,8 hPa 0,0 l/m 3,8 km/h (1 Bft) O -5,6 C -3,7 C 7,9 km/h (2 Bft)
14.01.2013 15:00 -4,1 C 88 % 1013,5 hPa 0,0 l/m 3,1 km/h (1 Bft) O -5,8 C -4,1 C 6,5 km/h (2 Bft)
14.01.2013 16:00 -4,0 C 88 % 1013,6 hPa 0,0 l/m 2,0 km/h (1 Bft) O-SO -5,7 C -4,0 C 4,9 km/h (1 Bft)
14.01.2013 17:00 -4,0 C 88 % 1013,5 hPa 0,0 l/m 0,3 km/h (0 Bft) O-SO -5,6 C -4,0 C 1,2 km/h (1 Bft)
14.01.2013 18:00 -4,1 C 90 % 1013,2 hPa 0,0 l/m 0,3 km/h (0 Bft) O-SO -5,5 C -4,1 C 1,3 km/h (1 Bft)
14.01.2013 19:00 -4,2 C 91 % 1012,9 hPa 0,0 l/m 1,4 km/h (1 Bft) O-SO -5,5 C -4,2 C 3,7 km/h (1 Bft)
14.01.2013 20:00 -4,4 C 92 % 1012,5 hPa 0,0 l/m 0,7 km/h (0 Bft) SO -5,5 C -4,4 C 2,8 km/h (1 Bft)
14.01.2013 21:00 -4,9 C 93 % 1012,2 hPa 0,0 l/m 0,3 km/h (0 Bft) S-SO -5,9 C -4,9 C 1,6 km/h (1 Bft)
14.01.2013 22:00 -4,7 C 94 % 1011,9 hPa 0,0 l/m 1,7 km/h (1 Bft) S-SW -5,5 C -4,7 C 4,1 km/h (1 Bft)
14.01.2013 23:00 -5,5 C 94 % 1011,3 hPa 0,0 l/m 0,1 km/h (0 Bft) N -6,4 C -5,5 C 0,5 km/h (0 Bft)
15.01.2013 00:00 -7,3 C 94 % 1011,2 hPa 0,0 l/m 0,0 km/h (0 Bft) N -8,1 C -7,3 C 0,0 km/h (0 Bft)
15.01.2013 01:00 -8,0 C 95 % 1011,3 hPa 0,0 l/m 0,0 km/h (0 Bft) N -8,8 C -8,0 C 0,0 km/h (0 Bft)
15.01.2013 02:00 -9,1 C 94 % 1011,5 hPa 0,0 l/m 0,0 km/h (0 Bft) N -9,9 C -9,1 C 0,0 km/h (0 Bft)
15.01.2013 03:00 -9,5 C 94 % 1011,3 hPa 0,0 l/m 0,1 km/h (0 Bft) N -10,3 C -9,5 C 0,3 km/h (0 Bft)
15.01.2013 04:00 -9,8 C 94 % 1010,8 hPa 0,0 l/m 0,0 km/h (0 Bft) N -10,6 C -9,8 C 0,0 km/h (0 Bft)
15.01.2013 05:00 -10,3 C 93 % 1010,5 hPa 0,0 l/m 0,0 km/h (0 Bft) N -11,2 C -10,3 C 0,0 km/h (0 Bft)
15.01.2013 06:00 -11,1 C 93 % 1010,2 hPa 0,0 l/m 0,0 km/h (0 Bft) N -12,0 C -11,1 C 0,0 km/h (0 Bft)
15.01.2013 07:00 -11,7 C 93 % 1010,2 hPa 0,0 l/m 0,0 km/h (0 Bft) N -12,6 C -11,7 C 0,0 km/h (0 Bft)
15.01.2013 08:00 -9,9 C 94 % 1010,3 hPa 0,0 l/m 0,1 km/h (0 Bft) SO -10,7 C -9,9 C 0,4 km/h (0 Bft)
15.01.2013 09:00 -8,8 C 94 % 1010,4 hPa 0,0 l/m 1,0 km/h (0 Bft) SO -9,6 C -8,8 C 3,5 km/h (1 Bft)
15.01.2013 10:00 -7,8 C 94 % 1010,5 hPa 0,0 l/m 1,5 km/h (1 Bft) O -8,6 C -7,8 C 3,6 km/h (1 Bft)
15.01.2013 11:00 -5,4 C 93 % 1010,5 hPa 0,0 l/m 2,8 km/h (1 Bft) O-SO -6,4 C -5,4 C 5,6 km/h (2 Bft)
15.01.2013 12:00 -3,8 C 89 % 1010,1 hPa 0,0 l/m 3,5 km/h (1 Bft) O -5,4 C -3,8 C 6,3 km/h (2 Bft)
15.01.2013 13:00 -3,7 C 86 % 1009,7 hPa 0,0 l/m 5,5 km/h (2 Bft) O-SO -5,6 C -3,8 C 11,3 km/h (2 Bft)
15.01.2013 14:00 -3,5 C 86 % 1009,4 hPa 0,0 l/m 6,0 km/h (2 Bft) O -5,6 C -3,7 C 10,6 km/h (2 Bft)
15.01.2013 15:00 -3,5 C 86 % 1009,6 hPa 0,0 l/m 4,2 km/h (1 Bft) O -5,6 C -3,5 C 7,8 km/h (2 Bft)
15.01.2013 16:00 -4,6 C 89 % 1009,9 hPa 0,0 l/m 4,6 km/h (1 Bft) NO -6,1 C -4,8 C 7,5 km/h (2 Bft)
15.01.2013 17:00 -5,8 C 93 % 1009,9 hPa 0,0 l/m 6,6 km/h (2 Bft) O-NO -6,8 C -6,4 C 11,4 km/h (2 Bft)
15.01.2013 18:00 -5,9 C 94 % 1010,1 hPa 0,0 l/m 6,3 km/h (2 Bft) O-NO -6,7 C -6,6 C 12,5 km/h (2 Bft)
15.01.2013 19:00 -5,7 C 94 % 1010,4 hPa 0,0 l/m 5,6 km/h (2 Bft) O -6,5 C -6,0 C 11,0 km/h (2 Bft)
15.01.2013 20:00 -5,5 C 94 % 1010,4 hPa 0,0 l/m 6,7 km/h (2 Bft) O-NO -6,3 C -6,1 C 12,9 km/h (3 Bft)
15.01.2013 21:00 -5,7 C 94 % 1010,3 hPa 0,0 l/m 7,2 km/h (2 Bft) O-NO -6,6 C -6,8 C 12,8 km/h (3 Bft)
15.01.2013 22:00 -5,8 C 94 % 1010,4 hPa 0,0 l/m 6,6 km/h (2 Bft) O -6,6 C -6,4 C 12,0 km/h (2 Bft)
15.01.2013 23:00 -5,5 C 94 % 1010,4 hPa 0,0 l/m 5,4 km/h (1 Bft) NO -6,3 C -5,6 C 9,4 km/h (2 Bft)
16.01.2013 00:00 -5,1 C 94 % 1010,3 hPa 0,0 l/m 4,8 km/h (1 Bft) NO -5,9 C -5,1 C 7,5 km/h (2 Bft)
16.01.2013 01:00 -4,8 C 94 % 1010,3 hPa 0,0 l/m 5,8 km/h (2 Bft) NO -5,6 C -5,2 C 9,3 km/h (2 Bft)
16.01.2013 02:00 -4,6 C 94 % 1010,3 hPa 0,0 l/m 7,1 km/h (2 Bft) NO -5,4 C -5,6 C 11,6 km/h (2 Bft)
16.01.2013 03:00 -4,5 C 95 % 1010,4 hPa 0,0 l/m 6,2 km/h (2 Bft) NO -5,2 C -4,9 C 10,6 km/h (2 Bft)
16.01.2013 04:00 -4,5 C 95 % 1010,4 hPa 0,0 l/m 5,5 km/h (2 Bft) O-NO -5,1 C -4,7 C 9,1 km/h (2 Bft)
16.01.2013 05:00 -4,3 C 95 % 1010,2 hPa 0,0 l/m 5,3 km/h (1 Bft) NO -5,0 C -4,4 C 8,7 km/h (2 Bft)
16.01.2013 06:00 -4,1 C 94 % 1010,1 hPa 0,0 l/m 5,7 km/h (2 Bft) O -4,9 C -4,2 C 11,3 km/h (2 Bft)
16.01.2013 07:00 -4,2 C 94 % 1010,4 hPa 0,0 l/m 5,0 km/h (1 Bft) O -5,1 C -4,3 C 9,7 km/h (2 Bft)
16.01.2013 08:00 -4,3 C 94 % 1010,9 hPa 0,0 l/m 3,5 km/h (1 Bft) O-NO -5,1 C -4,3 C 7,1 km/h (2 Bft)
16.01.2013 09:00 -4,2 C 94 % 1011,4 hPa 0,0 l/m 4,5 km/h (1 Bft) O-NO -5,0 C -4,3 C 9,1 km/h (2 Bft)
16.01.2013 10:00 -3,9 C 94 % 1011,6 hPa 0,0 l/m 5,4 km/h (1 Bft) NO -4,7 C -3,9 C 9,5 km/h (2 Bft)
16.01.2013 11:00 -3,7 C 94 % 1011,8 hPa 0,0 l/m 6,0 km/h (2 Bft) O-NO -4,6 C -3,9 C 10,2 km/h (2 Bft)
16.01.2013 12:00 -3,4 C 93 % 1011,8 hPa 0,0 l/m 5,2 km/h (1 Bft) O-NO -4,4 C -3,4 C 9,0 km/h (2 Bft)
16.01.2013 13:00 -3,4 C 92 % 1011,6 hPa 0,0 l/m 6,3 km/h (2 Bft) NO -4,5 C -3,5 C 10,6 km/h (2 Bft)
16.01.2013 14:00 -3,3 C 92 % 1011,4 hPa 0,0 l/m 7,6 km/h (2 Bft) N-NO -4,4 C -4,6 C 11,3 km/h (2 Bft)
16.01.2013 15:00 -3,3 C 92 % 1011,8 hPa 0,0 l/m 10,7 km/h (2 Bft) NO -4,4 C -7,7 C 15,7 km/h (3 Bft)
16.01.2013 16:00 -3,6 C 93 % 1012,4 hPa 0,0 l/m 9,4 km/h (2 Bft) N-NO -4,6 C -6,9 C 13,6 km/h (3 Bft)
16.01.2013 17:00 -3,9 C 93 % 1012,6 hPa 0,0 l/m 10,0 km/h (2 Bft) N-NO -4,9 C -7,7 C 14,4 km/h (3 Bft)
16.01.2013 18:00 -4,1 C 93 % 1013,0 hPa 0,0 l/m 8,8 km/h (2 Bft) N-NO -5,0 C -6,7 C 12,8 km/h (3 Bft)
16.01.2013 19:00 -4,1 C 93 % 1013,5 hPa 0,0 l/m 7,8 km/h (2 Bft) N-NO -5,1 C -5,8 C 11,4 km/h (2 Bft)
16.01.2013 20:00 -4,3 C 94 % 1013,7 hPa 0,0 l/m 9,7 km/h (2 Bft) N-NO -5,1 C -7,8 C 14,1 km/h (3 Bft)
16.01.2013 21:00 -4,3 C 94 % 1013,8 hPa 0,0 l/m 9,6 km/h (2 Bft) N -5,1 C -7,8 C 13,2 km/h (3 Bft)
16.01.2013 22:00 -4,2 C 94 % 1013,9 hPa 0,0 l/m 10,1 km/h (2 Bft) N -5,0 C -8,2 C 14,5 km/h (3 Bft)
16.01.2013 23:00 -4,2 C 94 % 1014,1 hPa 0,0 l/m 9,0 km/h (2 Bft) N -5,0 C -7,0 C 12,0 km/h (2 Bft)
17.01.2013 00:00 -4,1 C 94 % 1014,4 hPa 0,0 l/m 9,2 km/h (2 Bft) N-NW -4,9 C -7,2 C 12,8 km/h (3 Bft)
17.01.2013 01:00 -3,8 C 95 % 1014,6 hPa 0,0 l/m 10,1 km/h (2 Bft) N-NO -4,5 C -7,7 C 14,5 km/h (3 Bft)
17.01.2013 02:00 -3,6 C 95 % 1014,7 hPa 0,0 l/m 11,0 km/h (2 Bft) N-NO -4,3 C -8,3 C 14,5 km/h (3 Bft)
17.01.2013 03:00 -3,2 C 94 % 1014,8 hPa 0,0 l/m 11,4 km/h (2 Bft) N -4,0 C -8,3 C 15,4 km/h (3 Bft)
17.01.2013 04:00 -2,9 C 94 % 1015,0 hPa 0,0 l/m 11,8 km/h (2 Bft) N -3,7 C -8,2 C 15,7 km/h (3 Bft)
17.01.2013 05:00 -2,6 C 94 % 1015,3 hPa 0,0 l/m 11,8 km/h (2 Bft) N -3,4 C -7,8 C 16,5 km/h (3 Bft)
17.01.2013 06:00 -2,3 C 94 % 1015,5 hPa 0,0 l/m 12,1 km/h (2 Bft) N -3,1 C -7,7 C 16,6 km/h (3 Bft)
17.01.2013 07:00 -2,0 C 95 % 1015,8 hPa 0,0 l/m 10,2 km/h (2 Bft) N-NO -2,7 C -5,8 C 14,0 km/h (3 Bft)
17.01.2013 08:00 -1,7 C 95 % 1016,5 hPa 0,0 l/m 11,0 km/h (2 Bft) N -2,5 C -6,2 C 14,8 km/h (3 Bft)
17.01.2013 09:00 -1,7 C 94 % 1017,1 hPa 0,0 l/m 10,8 km/h (2 Bft) N -2,5 C -6,0 C 14,8 km/h (3 Bft)
17.01.2013 10:00 -1,6 C 94 % 1017,4 hPa 0,0 l/m 10,3 km/h (2 Bft) N-NO -2,4 C -5,4 C 14,2 km/h (3 Bft)
17.01.2013 11:00 -1,3 C 94 % 1017,4 hPa 0,0 l/m 13,7 km/h (3 Bft) N -2,2 C -7,7 C 18,5 km/h (3 Bft)
17.01.2013 12:00 -1,1 C 94 % 1017,3 hPa 0,0 l/m 11,9 km/h (2 Bft) N-NO -2,0 C -6,2 C 17,6 km/h (3 Bft)
17.01.2013 13:00 -0,9 C 93 % 1017,2 hPa 0,0 l/m 10,2 km/h (2 Bft) N-NO -1,8 C -4,6 C 15,0 km/h (3 Bft)
17.01.2013 14:00 -0,7 C 93 % 1017,4 hPa 0,0 l/m 10,7 km/h (2 Bft) N-NO -1,7 C -4,8 C 15,7 km/h (3 Bft)
17.01.2013 15:00 -0,8 C 93 % 1017,8 hPa 0,0 l/m 9,9 km/h (2 Bft) N-NO -1,8 C -4,2 C 15,0 km/h (3 Bft)
17.01.2013 16:00 -1,2 C 92 % 1018,2 hPa 0,0 l/m 5,5 km/h (2 Bft) NO -2,3 C -1,8 C 7,8 km/h (2 Bft)
17.01.2013 17:00 -1,7 C 93 % 1018,7 hPa 0,0 l/m 5,5 km/h (2 Bft) N-NO -2,7 C -1,8 C 7,3 km/h (2 Bft)
17.01.2013 18:00 -1,7 C 93 % 1019,0 hPa 0,0 l/m 7,4 km/h (2 Bft) N-NO -2,7 C -2,9 C 10,3 km/h (2 Bft)
17.01.2013 19:00 -2,0 C 92 % 1019,1 hPa 0,0 l/m 6,3 km/h (2 Bft) N-NO -3,2 C -2,3 C 8,9 km/h (2 Bft)
17.01.2013 20:00 -2,1 C 92 % 1019,2 hPa 0,0 l/m 5,1 km/h (1 Bft) N-NO -3,3 C -2,3 C 7,1 km/h (2 Bft)
17.01.2013 21:00 -1,9 C 92 % 1019,3 hPa 0,0 l/m 6,0 km/h (2 Bft) N -3,0 C -2,2 C 7,9 km/h (2 Bft)
17.01.2013 22:00 -1,9 C 93 % 1019,1 hPa 0,0 l/m 7,2 km/h (2 Bft) N -2,9 C -3,0 C 9,7 km/h (2 Bft)
17.01.2013 23:00 -1,9 C 94 % 1018,8 hPa 0,0 l/m 7,9 km/h (2 Bft) N-NO -2,8 C -3,6 C 11,2 km/h (2 Bft)
18.01.2013 00:00 -2,3 C 94 % 1018,5 hPa 0,0 l/m 6,2 km/h (2 Bft) NO -3,2 C -2,6 C 9,1 km/h (2 Bft)
18.01.2013 01:00 -1,8 C 95 % 1018,0 hPa 0,0 l/m 6,9 km/h (2 Bft) NO -2,5 C -2,4 C 10,0 km/h (2 Bft)
18.01.2013 02:00 -1,9 C 96 % 1017,7 hPa 0,0 l/m 5,3 km/h (1 Bft) N-NO -2,4 C -2,0 C 7,5 km/h (2 Bft)
18.01.2013 03:00 -1,7 C 96 % 1017,2 hPa 0,0 l/m 5,5 km/h (2 Bft) N-NO -2,3 C -1,9 C 7,7 km/h (2 Bft)
18.01.2013 04:00 -2,1 C 95 % 1016,7 hPa 0,0 l/m 5,0 km/h (1 Bft) N-NO -2,8 C -2,1 C 7,5 km/h (2 Bft)
18.01.2013 05:00 -3,9 C 95 % 1016,1 hPa 0,0 l/m 4,7 km/h (1 Bft) N-NO -4,6 C -3,9 C 6,7 km/h (2 Bft)
18.01.2013 06:00 -4,7 C 96 % 1015,7 hPa 0,0 l/m 4,9 km/h (1 Bft) NO -5,3 C -4,8 C 7,1 km/h (2 Bft)
18.01.2013 07:00 -3,2 C 96 % 1015,8 hPa 0,0 l/m 5,6 km/h (2 Bft) NO -3,8 C -3,2 C 8,6 km/h (2 Bft)
18.01.2013 08:00 -2,4 C 94 % 1015,6 hPa 0,0 l/m 5,0 km/h (1 Bft) O-NO -3,3 C -2,5 C 8,6 km/h (2 Bft)
18.01.2013 09:00 -2,2 C 93 % 1015,4 hPa 0,0 l/m 5,3 km/h (1 Bft) O-NO -3,2 C -2,2 C 10,2 km/h (2 Bft)
18.01.2013 10:00 -2,2 C 92 % 1015,0 hPa 0,0 l/m 6,5 km/h (2 Bft) O-NO -3,4 C -2,7 C 11,7 km/h (2 Bft)
18.01.2013 11:00 -2,2 C 90 % 1014,5 hPa 0,0 l/m 4,6 km/h (1 Bft) O -3,6 C -2,2 C 9,5 km/h (2 Bft)
18.01.2013 12:00 -2,2 C 89 % 1013,9 hPa 0,0 l/m 6,8 km/h (2 Bft) O-NO -3,8 C -3,1 C 12,0 km/h (2 Bft)
18.01.2013 13:00 -2,5 C 86 % 1013,3 hPa 0,0 l/m 8,5 km/h (2 Bft) O -4,5 C -4,7 C 15,3 km/h (3 Bft)
18.01.2013 14:00 -2,8 C 85 % 1012,7 hPa 0,0 l/m 9,7 km/h (2 Bft) O -4,9 C -6,2 C 16,5 km/h (3 Bft)
18.01.2013 15:00 -3,0 C 85 % 1012,5 hPa 0,0 l/m 7,5 km/h (2 Bft) O -5,2 C -4,5 C 14,4 km/h (3 Bft)
18.01.2013 16:00 -3,2 C 86 % 1011,9 hPa 0,0 l/m 8,9 km/h (2 Bft) O -5,2 C -5,9 C 15,2 km/h (3 Bft)
18.01.2013 17:00 -3,4 C 86 % 1011,5 hPa 0,0 l/m 7,4 km/h (2 Bft) O -5,4 C -4,6 C 12,6 km/h (3 Bft)
18.01.2013 18:00 -3,5 C 86 % 1011,2 hPa 0,0 l/m 6,8 km/h (2 Bft) O-NO -5,5 C -4,1 C 12,6 km/h (3 Bft)
18.01.2013 19:00 -3,7 C 87 % 1010,8 hPa 0,0 l/m 5,0 km/h (1 Bft) O-NO -5,6 C -3,8 C 9,4 km/h (2 Bft)
18.01.2013 20:00 -3,7 C 87 % 1010,3 hPa 0,0 l/m 6,0 km/h (2 Bft) O-NO -5,6 C -4,0 C 11,7 km/h (2 Bft)
18.01.2013 21:00 -3,6 C 87 % 1009,8 hPa 0,0 l/m 8,5 km/h (2 Bft) O -5,5 C -5,9 C 15,2 km/h (3 Bft)
18.01.2013 22:00 -3,7 C 86 % 1009,5 hPa 0,0 l/m 8,8 km/h (2 Bft) O-NO -5,8 C -6,3 C 16,2 km/h (3 Bft)
18.01.2013 23:00 -4,0 C 84 % 1009,2 hPa 0,0 l/m 9,1 km/h (2 Bft) O -6,3 C -7,0 C 18,2 km/h (3 Bft)
19.01.2013 00:00 -4,2 C 84 % 1008,7 hPa 0,0 l/m 9,3 km/h (2 Bft) O -6,5 C -7,3 C 16,6 km/h (3 Bft)
19.01.2013 01:00 -4,3 C 84 % 1008,0 hPa 0,0 l/m 8,9 km/h (2 Bft) O -6,5 C -7,0 C 15,6 km/h (3 Bft)
19.01.2013 02:00 -4,3 C 85 % 1007,4 hPa 0,0 l/m 8,3 km/h (2 Bft) O -6,5 C -6,4 C 15,8 km/h (3 Bft)
19.01.2013 03:00 -4,2 C 84 % 1006,8 hPa 0,0 l/m 8,1 km/h (2 Bft) O -6,4 C -6,1 C 14,4 km/h (3 Bft)
19.01.2013 04:00 -4,1 C 85 % 1006,3 hPa 0,0 l/m 7,6 km/h (2 Bft) O-NO -6,2 C -5,5 C 13,8 km/h (3 Bft)
19.01.2013 05:00 -4,6 C 85 % 1006,1 hPa 0,0 l/m 12,1 km/h (2 Bft) O -6,8 C -10,4 C 20,9 km/h (4 Bft)
19.01.2013 06:00 -5,0 C 83 % 1005,7 hPa 0,0 l/m 13,5 km/h (3 Bft) O -7,4 C -11,9 C 24,1 km/h (4 Bft)
19.01.2013 07:00 -5,4 C 85 % 1005,5 hPa 0,0 l/m 10,8 km/h (2 Bft) O-NO -7,5 C -10,0 C 19,7 km/h (3 Bft)
19.01.2013 08:00 -5,7 C 84 % 1005,4 hPa 0,0 l/m 12,5 km/h (2 Bft) O -7,9 C -11,9 C 22,2 km/h (4 Bft)
19.01.2013 09:00 -6,0 C 86 % 1005,4 hPa 0,0 l/m 9,9 km/h (2 Bft) O -8,0 C -9,9 C 17,8 km/h (3 Bft)
19.01.2013 10:00 -6,3 C 89 % 1005,5 hPa 0,0 l/m 8,8 km/h (2 Bft) O -7,8 C -9,1 C 16,1 km/h (3 Bft)
19.01.2013 11:00 -6,2 C 88 % 1005,1 hPa 0,0 l/m 9,8 km/h (2 Bft) O-NO -7,8 C -10,0 C 18,8 km/h (3 Bft)
19.01.2013 12:00 -6,1 C 86 % 1004,7 hPa 0,0 l/m 11,1 km/h (2 Bft) O-NO -8,1 C -11,2 C 19,6 km/h (3 Bft)
19.01.2013 13:00 -6,0 C 81 % 1004,5 hPa 0,0 l/m 9,8 km/h (2 Bft) O -8,7 C -9,8 C 18,4 km/h (3 Bft)
19.01.2013 14:00 -6,1 C 80 % 1004,5 hPa 0,0 l/m 10,2 km/h (2 Bft) O-NO -9,0 C -10,4 C 18,2 km/h (3 Bft)
19.01.2013 15:00 -6,2 C 84 % 1004,4 hPa 0,0 l/m 8,2 km/h (2 Bft) O-NO -8,5 C -8,4 C 14,9 km/h (3 Bft)
19.01.2013 16:00 -6,4 C 83 % 1004,2 hPa 0,0 l/m 9,2 km/h (2 Bft) O-NO -8,8 C -9,7 C 16,9 km/h (3 Bft)
19.01.2013 17:00 -6,7 C 84 % 1004,1 hPa 0,0 l/m 9,0 km/h (2 Bft) O-NO -8,9 C -9,8 C 16,4 km/h (3 Bft)
19.01.2013 18:00 -6,8 C 83 % 1004,3 hPa 0,0 l/m 8,0 km/h (2 Bft) O-NO -9,2 C -8,8 C 15,7 km/h (3 Bft)
19.01.2013 19:00 -6,9 C 83 % 1004,5 hPa 0,0 l/m 6,6 km/h (2 Bft) O-NO -9,4 C -7,5 C 13,4 km/h (3 Bft)
19.01.2013 20:00 -7,1 C 84 % 1004,6 hPa 0,0 l/m 5,7 km/h (2 Bft) O -9,4 C -7,2 C 11,4 km/h (2 Bft)
19.01.2013 21:00 -7,2 C 84 % 1004,7 hPa 0,0 l/m 9,3 km/h (2 Bft) O -9,4 C -10,5 C 18,0 km/h (3 Bft)
19.01.2013 22:00 -7,4 C 85 % 1004,8 hPa 0,0 l/m 10,1 km/h (2 Bft) O-SO -9,5 C -11,6 C 16,8 km/h (3 Bft)
19.01.2013 23:00 -7,6 C 86 % 1004,5 hPa 0,0 l/m 8,4 km/h (2 Bft) O-NO -9,5 C -10,2 C 14,4 km/h (3 Bft)
20.01.2013 00:00 -7,7 C 87 % 1004,2 hPa 0,0 l/m 6,5 km/h (2 Bft) O -9,5 C -8,7 C 11,7 km/h (2 Bft)
20.01.2013 01:00 -8,0 C 88 % 1003,9 hPa 0,0 l/m 7,2 km/h (2 Bft) O-NO -9,7 C -9,3 C 12,9 km/h (3 Bft)
20.01.2013 02:00 -8,0 C 89 % 1003,8 hPa 0,0 l/m 7,2 km/h (2 Bft) O-NO -9,5 C -9,1 C 12,6 km/h (3 Bft)
20.01.2013 03:00 -8,3 C 89 % 1003,6 hPa 0,0 l/m 7,4 km/h (2 Bft) O-NO -9,7 C -9,7 C 13,3 km/h (3 Bft)
20.01.2013 04:00 -8,3 C 90 % 1003,5 hPa 0,0 l/m 5,2 km/h (1 Bft) O -9,6 C -8,4 C 9,8 km/h (2 Bft)
20.01.2013 05:00 -8,2 C 90 % 1003,2 hPa 0,0 l/m 5,1 km/h (1 Bft) NO -9,5 C -8,2 C 9,2 km/h (2 Bft)
20.01.2013 06:00 -8,5 C 91 % 1003,1 hPa 0,0 l/m 6,8 km/h (2 Bft) O-NO -9,7 C -9,3 C 12,4 km/h (2 Bft)
20.01.2013 07:00 -8,8 C 92 % 1003,3 hPa 0,0 l/m 7,2 km/h (2 Bft) O-NO -9,9 C -10,1 C 13,7 km/h (3 Bft)
20.01.2013 08:00 -8,9 C 92 % 1003,7 hPa 0,0 l/m 5,6 km/h (2 Bft) O-NO -9,9 C -9,1 C 11,0 km/h (2 Bft)
20.01.2013 09:00 -8,2 C 93 % 1003,9 hPa 0,0 l/m 7,5 km/h (2 Bft) O-NO -9,2 C -9,7 C 13,3 km/h (3 Bft)
20.01.2013 10:00 -7,4 C 91 % 1003,6 hPa 0,0 l/m 6,7 km/h (2 Bft) O-NO -8,7 C -8,1 C 12,0 km/h (2 Bft)
20.01.2013 11:00 -6,9 C 90 % 1003,3 hPa 0,0 l/m 6,7 km/h (2 Bft) NO -8,4 C -7,7 C 10,9 km/h (2 Bft)
20.01.2013 12:00 -5,9 C 89 % 1002,3 hPa 0,0 l/m 9,4 km/h (2 Bft) NO -7,5 C -9,3 C 15,3 km/h (3 Bft)
20.01.2013 13:00 -5,3 C 87 % 1002,0 hPa 0,0 l/m 9,9 km/h (2 Bft) NO -7,1 C -9,2 C 17,6 km/h (3 Bft)
20.01.2013 14:00 -5,1 C 88 % 1002,1 hPa 0,0 l/m 8,6 km/h (2 Bft) NO -6,7 C -7,5 C 14,5 km/h (3 Bft)
20.01.2013 15:00 -4,7 C 88 % 1001,9 hPa 0,0 l/m 11,8 km/h (2 Bft) NO -6,4 C -10,2 C 19,2 km/h (3 Bft)
20.01.2013 16:00 -4,5 C 87 % 1002,0 hPa 0,0 l/m 11,5 km/h (2 Bft) O-NO -6,4 C -9,8 C 21,2 km/h (4 Bft)
20.01.2013 17:00 -4,2 C 87 % 1001,9 hPa 0,0 l/m 11,8 km/h (2 Bft) NO -6,1 C -9,6 C 20,8 km/h (4 Bft)
20.01.2013 18:00 -4,0 C 87 % 1002,1 hPa 0,0 l/m 8,9 km/h (2 Bft) O-NO -5,8 C -6,8 C 17,4 km/h (3 Bft)
20.01.2013 19:00 -3,9 C 87 % 1002,2 hPa 0,0 l/m 10,1 km/h (2 Bft) O-NO -5,7 C -7,8 C 19,6 km/h (3 Bft)
20.01.2013 20:00 -3,8 C 86 % 1002,6 hPa 0,0 l/m 10,3 km/h (2 Bft) O-NO -5,7 C -7,9 C 18,4 km/h (3 Bft)
20.01.2013 21:00 -3,8 C 87 % 1002,6 hPa 0,0 l/m 10,3 km/h (2 Bft) O-NO -5,7 C -8,0 C 20,0 km/h (4 Bft)
20.01.2013 22:00 -4,0 C 88 % 1002,1 hPa 0,0 l/m 10,2 km/h (2 Bft) O-NO -5,7 C -8,0 C 18,8 km/h (3 Bft)
20.01.2013 23:00 -4,0 C 88 % 1002,4 hPa 0,0 l/m 8,8 km/h (2 Bft) O-NO -5,6 C -6,6 C 17,3 km/h (3 Bft)
Min-Datum _ 15.01.13 19.01.13 20.01.13 - 14.01.13 - 15.01.13 19.01.13 14.01.13
_ Min-Zeit 07:40 14:00 15:50 - 04:25 - 07:40 08:30 04:25
Minimum _ -12,2 C 79 % 1001,6 hPa - 0,0 km/h (0 Bft) - -13,2 C -14,5 C 0,0 km/h (0 Bft)
Max-Datum _ 17.01.13 18.01.13 14.01.13 14.01.13 19.01.13 - 17.01.13 17.01.13 19.01.13
_ Max-Zeit 13:45 02:10 00:00 00:00 06:05 - 13:45 16:30 06:25
Maximum _ -0,7 C 96 % 1019,4 hPa 0,0 l/m 16,8 km/h
O (3 Bft)
- -1,7 C -1,2 C 30,6 km/h
O (5 Bft)
Durchschnitt _ -4,7 C 90 % 1011,0 hPa #0,0 l/m 6,7 km/h (2 Bft) O-NO -6,0 C -6,3 C 11,5 km/h (2 Bft)